Oceanus — D5GY2 — position and weather

sailwx.info

Track history (hours):
 
Tides and Currents Weather Stations Pressure Air Temp Water Temp Dewpoint Dewpoint Depression Visibility Wind Speed Wind Dir Waves Ship Positions

Oceanus

Last reported at 2017-Dec-14 17:47 UTC. Time now 2017-Dec-17 06:27 UTC.
Position N 35°55' W 024°10'.

Length 200 m; draft 13.3 m.

Type: Cargo ship. MMSI: 636016601.

Date/timePositionNaut miles runAvg speedWind from/ knotsBaromVisibWave heightAir tempDewpointWater temp
2017-Dec-14 17:47N 35°55' W 024°10'2212.4
2017-Dec-14 16:03N 35°55' W 024°37'212.6
2017-Dec-14 15:52N 35°55' W 024°40'1112.4
2017-Dec-14 14:59N 35°55' W 024°53'612.4
2017-Dec-14 14:28N 35°55' W 025°01'612.7
2017-Dec-14 13:59N 35°55' W 025°09'612.6
2017-Dec-14 13:30N 35°55' W 025°16'612.8
2017-Dec-14 13:00N 35°56' W 025°24'612.8
2017-Dec-14 12:30N 35°56' W 025°32'712.7
2017-Dec-14 11:58N 35°56' W 025°41'612.6
2017-Dec-14 11:30N 35°56' W 025°48'612.8
2017-Dec-14 11:00N 35°55' W 025°55'712.6
2017-Dec-14 10:29N 35°55' W 026°04'612.6
2017-Dec-14 10:00N 35°55' W 026°11'612.5
2017-Dec-14 09:30N 35°55' W 026°19'612.4
2017-Dec-14 09:00N 35°55' W 026°26'612.3
2017-Dec-14 08:30N 35°55' W 026°34'612.4
2017-Dec-14 07:59N 35°55' W 026°42'612.4
2017-Dec-14 07:30N 35°55' W 026°49'712.4
2017-Dec-14 06:59N 35°55' W 026°57'612.4
2017-Dec-14 06:30N 35°55' W 027°05'612.6
2017-Dec-14 06:00N 35°55' W 027°12'712.6
2017-Dec-14 05:28N 35°55' W 027°21'812.5
2017-Dec-14 04:48N 35°55' W 027°31'1012.5
2017-Dec-14 03:58N 35°55' W 027°44'1612.3
2017-Dec-14 02:41N 35°55' W 028°03'412.2
2017-Dec-14 02:23N 35°55' W 028°08'512.3
2017-Dec-14 02:00N 35°55' W 028°14'612.5
2017-Dec-14 01:31N 35°55' W 028°21'712.5
2017-Dec-14 00:56N 35°55' W 028°30'612.6
2017-Dec-14 00:29N 35°55' W 028°37'612.5
2017-Dec-14 00:00N 35°55' W 028°45'912.4
2017-Dec-13 23:15N 35°55' W 028°56'5712.3
2017-Dec-13 18:40N 35°54' W 030°06'3812.1
2017-Dec-13 15:34N 35°54' W 030°53'3712.0
2017-Dec-13 12:29N 35°55' W 031°38'4112.2
2017-Dec-13 09:07N 35°54' W 032°29'  
Track history (hours):
 
Tides and Currents Weather Stations Pressure Air Temp Water Temp Dewpoint Dewpoint Depression Visibility Wind Speed Wind Dir Waves Ship Positions

Oceanus

Last reported at 2017-Dec-14 17:47 UTC. Time now 2017-Dec-17 06:27 UTC.
Position N 35°55' W 024°10'.

Length 200 m; draft 13.3 m.

Type: Cargo ship. MMSI: 636016601.

Date/timePositionNaut miles runAvg speedWind from/ knotsBaromVisibWave heightAir tempDewpointWater temp
2017-Dec-14 17:47N 35°55' W 024°10'2212.4
2017-Dec-14 16:03N 35°55' W 024°37'212.6
2017-Dec-14 15:52N 35°55' W 024°40'1112.4
2017-Dec-14 14:59N 35°55' W 024°53'612.4
2017-Dec-14 14:28N 35°55' W 025°01'612.7
2017-Dec-14 13:59N 35°55' W 025°09'612.6
2017-Dec-14 13:30N 35°55' W 025°16'612.8
2017-Dec-14 13:00N 35°56' W 025°24'612.8
2017-Dec-14 12:30N 35°56' W 025°32'712.7
2017-Dec-14 11:58N 35°56' W 025°41'612.6
2017-Dec-14 11:30N 35°56' W 025°48'612.8
2017-Dec-14 11:00N 35°55' W 025°55'712.6
2017-Dec-14 10:29N 35°55' W 026°04'612.6
2017-Dec-14 10:00N 35°55' W 026°11'612.5
2017-Dec-14 09:30N 35°55' W 026°19'612.4
2017-Dec-14 09:00N 35°55' W 026°26'612.3
2017-Dec-14 08:30N 35°55' W 026°34'612.4
2017-Dec-14 07:59N 35°55' W 026°42'612.4
2017-Dec-14 07:30N 35°55' W 026°49'712.4
2017-Dec-14 06:59N 35°55' W 026°57'612.4
2017-Dec-14 06:30N 35°55' W 027°05'612.6
2017-Dec-14 06:00N 35°55' W 027°12'712.6
2017-Dec-14 05:28N 35°55' W 027°21'812.5
2017-Dec-14 04:48N 35°55' W 027°31'1012.5
2017-Dec-14 03:58N 35°55' W 027°44'1612.3
2017-Dec-14 02:41N 35°55' W 028°03'412.2
2017-Dec-14 02:23N 35°55' W 028°08'512.3
2017-Dec-14 02:00N 35°55' W 028°14'612.5
2017-Dec-14 01:31N 35°55' W 028°21'712.5
2017-Dec-14 00:56N 35°55' W 028°30'612.6
2017-Dec-14 00:29N 35°55' W 028°37'612.5
2017-Dec-14 00:00N 35°55' W 028°45'912.4
2017-Dec-13 23:15N 35°55' W 028°56'5712.3
2017-Dec-13 18:40N 35°54' W 030°06'3812.1
2017-Dec-13 15:34N 35°54' W 030°53'3712.0
2017-Dec-13 12:29N 35°55' W 031°38'4112.2
2017-Dec-13 09:07N 35°54' W 032°29'  

Dump ship's entire track history